Twentynine Palms (Self) Airport
KNXP : rendu visible

Aérodrome :











RETROUVEZ-NOUS SUR...

 
LOGIN :

S'inscrire | Disclaimer

   EN    FR    IT 

 









Légende :    VFR   VFR Marginal   IFR   IFR Intensif   IFR Très Intensif
Visi : 
Plafond : 
>= 8 km
>= 3000ft
5 à 8 km
1000 à 3000 ft
1500m à 5 km
500 à 1000 ft
800 à 1500m
200 à 500 ft
< 800m
< 200 ft
Symboles :   Orages  Brouillard  Fortes neiges  Fortes précipitations  Vent > 20 kt






- Altitude de l'aérodrome : 2051 ft


KNXP - Twentynine Palms (Self)

DERNIER METAR :
  • 150656Z AUTO 23007KT 10SM CLR 16/M04 A3016 RMK AO2 SLP187 T01561044 $

METARs EXPIRÉS :
  • 150556Z AUTO 00000KT 9SM CLR 17/M06 A3016 RMK AO2 SLP188 T01721061 10256 20150 51008 $

TAF TAF KNXP
Valide du 15 à 03h jusqu'au 16 à 03h UTC


1503/1603 20005KT 9999 SCT250 QNH3012INS
BECMG 1504/1506 VRB05KT 9999 SCT250 QNH3004INS AUTOMATED SENSOR METWATCH 1503 TIL 1515 T11/1514Z T25/1521Z



MET'MAP, la Météo Aéronautique d'un coup d'oeil ! - Copyright ORBIFLY Décembre 2007 - Disclaimer

ORBIFLY MET'MAP TEAM :

Programmation & Développement : Alexandra Zaïnal
Conception & Développement : Baudouin d'Aumeries
Co-Programmation & Développement : Marc-Olivier Méhu
Soutien technique & logistique : Manuel Goepfert

Contact : metmap@orbifly.com




SOURCES & CREDITS :

   NOAA       Earth
Advisory